Terminal Aerodrome Forecast
Issued by NWS

Home | Current Version | Previous Version | Text Only | Print | Product List | Glossary On
Versions: 1 2 3 4 5 6 7 8 9 10 11 12 13
921
FTUS44 KCRP 150525
TAFLRD
TAF
KLRD 150525Z 1506/1606 VRB05KT P6SM OVC150
     FM150700 01018G25KT P6SM -RA SCT030 OVC080
      TEMPO 1507/1511 6SM -RA BR BKN030
     FM151100 01015G22KT P6SM -RA SCT020 OVC050
      TEMPO 1511/1515 6SM -RA BR OVC020
     FM151500 36012KT P6SM -RA OVC040
     FM151900 32006KT P6SM OVC050
     FM160000 VRB03KT P6SM OVC100=

USA.gov is the U.S. government's official web portal to all federal, state and local government web resources and services.